Olympia, WA (98503)

1:39 AM PDT on March 31, 2015 (GMT -0700)
Amongst the Lakes of Lacey, Washington | | Change Station
CLOSE
Current Station
Personal Weather Station
Location: Lacey, WA
Elevation: 203 ft
Nearby Weather Stations

Elev 203 ft 47.03 °N, 122.79 °W | Updated 8 seconds ago

Overcast
Overcast
48.6 °F
Feels Like 49 °F
N
2.1
Wind Variable Wind from NNW
Gusts 6.0 mph

Today
High -- | Low -- °F
--% Chance of Precip.
Yesterday
High -- | Low -- °F
Precip. -- in
6:52 AM 7:39 PM
Waxing Gibbous, 85% visible
Pressure 29.89 in
Visibility 10.0 miles
Clouds Few 1600 ft
Mostly Cloudy 4200 ft
Overcast 6000 ft
Windchill 49 °F
Dew Point 48 °F
Humidity 99%
Rainfall 0.05 in
Snow Depth Not available.
UV 0.0 out of 12
Pollen 11.60 out of 12
Air Quality Not available.
Flu Activity Not available.
SPECI KOLM 310833Z AUTO 26010KT 10SM -RA FEW016 BKN042 OVC060 09/07 A2989 RMK AO2 PRESRR P0003 T00940067

More Conditions Fewer Conditions

Pressure 29.89 in
Visibility 10.0 miles
Clouds Few 1600 ft
Mostly Cloudy 4200 ft
Overcast 6000 ft
Windchill 49 °F
Dew Point 48 °F
Humidity 99%
Rainfall 0.05 in
Snow Depth Not available.
UV 0.0 out of 12
Pollen 11.60 out of 12
Air Quality Not available.
Flu Activity Not available.
SPECI KOLM 310833Z AUTO 26010KT 10SM -RA FEW016 BKN042 OVC060 09/07 A2989 RMK AO2 PRESRR P0003 T00940067

More Conditions Fewer Conditions

10-Day Weather Forecast

Almanac

Astronomy

Mar. 31, 2015 Rise Set
Actual Time
Civil Twilight
Nautical Twilight
Astronomical Twilight
Moon
Length of Visible Light
Length of Day
Tomorrow will be .
, % of the Moon is Illuminated

Today's Extremes

State Highs State Lows

Community

WunderPhotos

Upload Photos

1,809,732 photos uploaded!

WunderBlogs® & News

Nearby

Air Quality

  Air Quality AQ Index Pollutant
Not available.

Snow Depth

Station Depth Elevation

Earthquake Activity

City Distance Mag. Time & Date
Minimum magnitude displayed is 2.5.

Coastal Water Temperatures

Place Temperature

Stations

Nearby Weather Stations

Station Location Temp. Windchill Dew Point Humidity Wind Precip. Elev Updated Type